sensor_id;sensor_type;location;lat;lon;timestamp;pressure;altitude;pressure_sealevel;temperature;humidity
19777;BME280;10047;42.490;26.012;2023-07-09T00:01:53;102355.69;;;20.62;100.00
19777;BME280;10047;42.490;26.012;2023-07-09T00:04:18;102441.31;;;20.81;100.00
19777;BME280;10047;42.490;26.012;2023-07-09T00:06:44;102465.81;;;20.69;100.00
19777;BME280;10047;42.490;26.012;2023-07-09T00:09:16;102522.59;;;20.43;100.00
19777;BME280;10047;42.490;26.012;2023-07-09T00:11:42;102557.09;;;20.09;100.00
19777;BME280;10047;42.490;26.012;2023-07-09T00:14:08;102638.81;;;20.13;100.00
19777;BME280;10047;42.490;26.012;2023-07-09T00:16:34;102733.38;;;20.21;100.00
19777;BME280;10047;42.490;26.012;2023-07-09T00:22:02;102955.69;;;20.18;100.00
19777;BME280;10047;42.490;26.012;2023-07-09T00:24:27;103020.47;;;20.08;100.00
19777;BME280;10047;42.490;26.012;2023-07-09T00:26:53;103109.00;;;20.20;100.00
19777;BME280;10047;42.490;26.012;2023-07-09T00:29:18;103172.19;;;20.00;100.00
19777;BME280;10047;42.490;26.012;2023-07-09T00:31:44;103232.63;;;19.89;100.00
19777;BME280;10047;42.490;26.012;2023-07-09T00:37:12;103528.75;;;19.97;100.00
19777;BME280;10047;42.490;26.012;2023-07-09T00:42:42;103659.75;;;19.90;100.00
19777;BME280;10047;42.490;26.012;2023-07-09T00:48:14;103808.72;;;19.89;100.00
19777;BME280;10047;42.490;26.012;2023-07-09T00:53:44;103786.28;;;19.98;100.00
19777;BME280;10047;42.490;26.012;2023-07-09T00:56:11;103776.88;;;19.83;100.00
19777;BME280;10047;42.490;26.012;2023-07-09T00:58:39;103803.63;;;19.76;100.00
19777;BME280;10047;42.490;26.012;2023-07-09T01:04:09;103805.94;;;20.32;100.00
19777;BME280;10047;42.490;26.012;2023-07-09T01:06:35;103639.34;;;19.49;100.00
19777;BME280;10047;42.490;26.012;2023-07-09T01:09:02;103409.09;;;19.05;100.00
19777;BME280;10047;42.490;26.012;2023-07-09T01:11:28;103209.47;;;19.82;100.00
19777;BME280;10047;42.490;26.012;2023-07-09T01:17:01;102872.00;;;19.37;100.00
19777;BME280;10047;42.490;26.012;2023-07-09T01:19:28;102695.31;;;19.51;100.00
19777;BME280;10047;42.490;26.012;2023-07-09T01:21:57;102560.53;;;19.40;100.00
19777;BME280;10047;42.490;26.012;2023-07-09T01:30:16;101990.31;;;19.63;100.00
19777;BME280;10047;42.490;26.012;2023-07-09T01:32:42;101909.53;;;19.61;100.00
19777;BME280;10047;42.490;26.012;2023-07-09T01:35:11;101886.03;;;19.44;100.00
19777;BME280;10047;42.490;26.012;2023-07-09T01:40:39;101672.63;;;19.91;100.00
19777;BME280;10047;42.490;26.012;2023-07-09T01:43:05;101660.09;;;20.25;100.00
19777;BME280;10047;42.490;26.012;2023-07-09T01:45:32;101737.53;;;19.82;100.00
19777;BME280;10047;42.490;26.012;2023-07-09T01:47:58;101713.09;;;19.46;100.00
19777;BME280;10047;42.490;26.012;2023-07-09T01:53:26;101639.69;;;19.30;100.00
19777;BME280;10047;42.490;26.012;2023-07-09T01:55:51;101622.22;;;19.38;100.00
19777;BME280;10047;42.490;26.012;2023-07-09T01:58:19;101586.00;;;19.18;100.00
19777;BME280;10047;42.490;26.012;2023-07-09T02:00:44;101531.75;;;18.51;100.00
19777;BME280;10047;42.490;26.012;2023-07-09T02:06:12;101457.97;;;18.72;100.00
19777;BME280;10047;42.490;26.012;2023-07-09T02:11:40;101654.84;;;18.68;100.00
19777;BME280;10047;42.490;26.012;2023-07-09T02:14:05;101635.06;;;18.42;100.00
19777;BME280;10047;42.490;26.012;2023-07-09T02:16:31;101572.41;;;18.43;100.00
19777;BME280;10047;42.490;26.012;2023-07-09T02:18:56;101617.25;;;18.62;100.00
19777;BME280;10047;42.490;26.012;2023-07-09T02:24:24;101653.69;;;18.76;100.00
19777;BME280;10047;42.490;26.012;2023-07-09T02:26:56;101657.69;;;18.85;100.00
19777;BME280;10047;42.490;26.012;2023-07-09T02:29:22;101662.69;;;19.13;100.00
19777;BME280;10047;42.490;26.012;2023-07-09T02:34:51;101690.69;;;18.74;100.00
19777;BME280;10047;42.490;26.012;2023-07-09T02:37:18;101703.84;;;18.66;100.00
19777;BME280;10047;42.490;26.012;2023-07-09T02:39:43;101680.19;;;18.55;100.00
19777;BME280;10047;42.490;26.012;2023-07-09T02:42:10;101681.34;;;18.47;100.00
19777;BME280;10047;42.490;26.012;2023-07-09T02:44:36;101683.94;;;18.71;100.00
19777;BME280;10047;42.490;26.012;2023-07-09T02:50:04;101680.66;;;18.66;100.00
19777;BME280;10047;42.490;26.012;2023-07-09T02:52:30;101688.00;;;18.52;100.00
19777;BME280;10047;42.490;26.012;2023-07-09T02:54:55;101692.84;;;18.35;100.00
19777;BME280;10047;42.490;26.012;2023-07-09T02:57:20;101695.84;;;18.49;100.00
19777;BME280;10047;42.490;26.012;2023-07-09T02:59:46;101710.66;;;18.15;100.00
19777;BME280;10047;42.490;26.012;2023-07-09T03:02:11;101750.50;;;18.59;100.00
19777;BME280;10047;42.490;26.012;2023-07-09T03:04:38;101751.75;;;18.73;100.00
19777;BME280;10047;42.490;26.012;2023-07-09T03:07:04;101762.31;;;18.90;100.00
19777;BME280;10047;42.490;26.012;2023-07-09T03:12:32;101796.97;;;18.82;100.00
19777;BME280;10047;42.490;26.012;2023-07-09T03:14:57;101822.47;;;18.91;100.00
19777;BME280;10047;42.490;26.012;2023-07-09T03:17:22;101841.34;;;18.91;100.00
19777;BME280;10047;42.490;26.012;2023-07-09T03:19:48;101861.88;;;19.21;100.00
19777;BME280;10047;42.490;26.012;2023-07-09T03:22:13;101893.72;;;19.46;100.00
19777;BME280;10047;42.490;26.012;2023-07-09T03:24:38;101895.69;;;19.12;100.00
19777;BME280;10047;42.490;26.012;2023-07-09T03:27:04;101919.47;;;19.21;100.00
19777;BME280;10047;42.490;26.012;2023-07-09T03:29:29;101973.84;;;19.41;100.00
19777;BME280;10047;42.490;26.012;2023-07-09T03:34:57;101998.22;;;19.33;100.00
19777;BME280;10047;42.490;26.012;2023-07-09T03:37:22;102031.63;;;19.63;100.00
19777;BME280;10047;42.490;26.012;2023-07-09T03:39:47;102100.50;;;19.63;100.00
19777;BME280;10047;42.490;26.012;2023-07-09T03:42:13;102114.53;;;19.54;100.00
19777;BME280;10047;42.490;26.012;2023-07-09T03:47:41;102158.66;;;19.73;100.00
19777;BME280;10047;42.490;26.012;2023-07-09T03:50:09;102171.69;;;19.70;100.00
19777;BME280;10047;42.490;26.012;2023-07-09T03:52:35;102176.47;;;19.54;100.00
19777;BME280;10047;42.490;26.012;2023-07-09T03:55:00;102194.59;;;19.80;100.00
19777;BME280;10047;42.490;26.012;2023-07-09T04:00:29;102188.16;;;19.66;100.00
19777;BME280;10047;42.490;26.012;2023-07-09T04:02:55;102203.81;;;19.60;100.00
19777;BME280;10047;42.490;26.012;2023-07-09T04:05:22;102227.13;;;19.86;100.00
19777;BME280;10047;42.490;26.012;2023-07-09T04:07:47;102242.50;;;19.91;100.00
19777;BME280;10047;42.490;26.012;2023-07-09T04:13:15;102254.34;;;20.25;100.00
19777;BME280;10047;42.490;26.012;2023-07-09T04:15:40;102261.91;;;20.31;100.00
19777;BME280;10047;42.490;26.012;2023-07-09T04:18:05;102269.53;;;20.36;100.00
19777;BME280;10047;42.490;26.012;2023-07-09T04:20:31;102279.31;;;20.52;100.00
19777;BME280;10047;42.490;26.012;2023-07-09T04:25:59;102292.22;;;20.54;100.00
19777;BME280;10047;42.490;26.012;2023-07-09T04:28:27;102278.53;;;21.03;100.00
19777;BME280;10047;42.490;26.012;2023-07-09T04:30:52;102281.56;;;21.15;100.00
19777;BME280;10047;42.490;26.012;2023-07-09T04:33:18;102278.84;;;21.18;100.00
19777;BME280;10047;42.490;26.012;2023-07-09T04:35:45;102276.31;;;21.17;100.00
19777;BME280;10047;42.490;26.012;2023-07-09T04:38:11;102277.09;;;21.19;100.00
19777;BME280;10047;42.490;26.012;2023-07-09T04:40:36;102303.31;;;21.57;100.00
19777;BME280;10047;42.490;26.012;2023-07-09T04:46:04;102271.50;;;22.00;100.00
19777;BME280;10047;42.490;26.012;2023-07-09T04:48:29;102272.06;;;22.08;100.00
19777;BME280;10047;42.490;26.012;2023-07-09T04:50:54;102275.38;;;22.12;100.00
19777;BME280;10047;42.490;26.012;2023-07-09T04:53:20;102278.19;;;22.27;100.00
19777;BME280;10047;42.490;26.012;2023-07-09T04:58:47;102259.50;;;21.98;100.00
19777;BME280;10047;42.490;26.012;2023-07-09T05:01:13;102286.75;;;22.51;100.00
19777;BME280;10047;42.490;26.012;2023-07-09T05:03:38;102271.81;;;22.58;100.00
19777;BME280;10047;42.490;26.012;2023-07-09T05:06:03;102255.16;;;22.63;100.00
19777;BME280;10047;42.490;26.012;2023-07-09T05:11:33;102193.59;;;22.87;100.00
19777;BME280;10047;42.490;26.012;2023-07-09T05:13:58;102185.91;;;23.43;100.00
19777;BME280;10047;42.490;26.012;2023-07-09T05:16:24;102166.81;;;23.62;100.00
19777;BME280;10047;42.490;26.012;2023-07-09T05:18:49;102119.00;;;23.29;100.00
19777;BME280;10047;42.490;26.012;2023-07-09T05:24:17;102069.69;;;23.65;100.00
19777;BME280;10047;42.490;26.012;2023-07-09T05:29:58;101958.94;;;23.79;100.00
19777;BME280;10047;42.490;26.012;2023-07-09T05:32:23;101959.69;;;24.31;100.00
19777;BME280;10047;42.490;26.012;2023-07-09T05:34:48;101925.84;;;24.64;100.00
19777;BME280;10047;42.490;26.012;2023-07-09T05:37:14;101881.00;;;24.43;100.00
19777;BME280;10047;42.490;26.012;2023-07-09T05:39:39;101843.81;;;24.72;100.00
19777;BME280;10047;42.490;26.012;2023-07-09T05:42:04;101778.59;;;24.75;100.00
19777;BME280;10047;42.490;26.012;2023-07-09T05:44:30;101721.38;;;24.60;100.00
19777;BME280;10047;42.490;26.012;2023-07-09T05:46:55;101681.94;;;24.81;100.00
19777;BME280;10047;42.490;26.012;2023-07-09T05:49:20;101647.41;;;25.20;100.00
19777;BME280;10047;42.490;26.012;2023-07-09T05:54:49;101660.59;;;25.45;100.00
19777;BME280;10047;42.490;26.012;2023-07-09T05:57:14;101617.13;;;24.91;100.00
19777;BME280;10047;42.490;26.012;2023-07-09T05:59:40;101766.38;;;25.76;100.00
19777;BME280;10047;42.490;26.012;2023-07-09T06:02:07;101900.56;;;25.70;100.00
19777;BME280;10047;42.490;26.012;2023-07-09T06:07:37;101830.34;;;25.53;100.00
19777;BME280;10047;42.490;26.012;2023-07-09T06:10:06;101772.63;;;25.45;100.00
19777;BME280;10047;42.490;26.012;2023-07-09T06:12:33;101857.78;;;26.01;100.00
19777;BME280;10047;42.490;26.012;2023-07-09T06:14:58;101952.34;;;25.47;100.00
19777;BME280;10047;42.490;26.012;2023-07-09T06:20:26;102085.28;;;25.76;100.00
19777;BME280;10047;42.490;26.012;2023-07-09T06:25:54;102382.25;;;26.90;100.00
19777;BME280;10047;42.490;26.012;2023-07-09T06:28:20;101612.22;;;26.46;100.00
19777;BME280;10047;42.490;26.012;2023-07-09T06:30:46;101777.22;;;26.64;100.00
19777;BME280;10047;42.490;26.012;2023-07-09T06:33:12;101646.25;;;26.06;100.00
19777;BME280;10047;42.490;26.012;2023-07-09T06:35:37;101417.47;;;26.69;100.00
19777;BME280;10047;42.490;26.012;2023-07-09T06:41:05;101772.72;;;26.66;100.00
19777;BME280;10047;42.490;26.012;2023-07-09T06:43:31;101808.50;;;27.16;100.00
19777;BME280;10047;42.490;26.012;2023-07-09T06:45:58;101872.75;;;26.93;100.00
19777;BME280;10047;42.490;26.012;2023-07-09T06:48:24;102379.94;;;26.86;100.00
19777;BME280;10047;42.490;26.012;2023-07-09T06:53:52;102261.81;;;26.81;100.00
19777;BME280;10047;42.490;26.012;2023-07-09T06:56:18;102218.84;;;27.42;100.00
19777;BME280;10047;42.490;26.012;2023-07-09T06:58:43;102038.72;;;26.85;100.00
19777;BME280;10047;42.490;26.012;2023-07-09T07:01:11;101896.38;;;27.04;100.00
19777;BME280;10047;42.490;26.012;2023-07-09T07:06:39;101621.03;;;27.79;100.00
19777;BME280;10047;42.490;26.012;2023-07-09T07:09:04;101508.81;;;27.41;100.00
19777;BME280;10047;42.490;26.012;2023-07-09T07:11:29;101435.81;;;27.27;100.00
19777;BME280;10047;42.490;26.012;2023-07-09T07:13:55;101355.22;;;27.34;100.00
19777;BME280;10047;42.490;26.012;2023-07-09T07:16:20;101306.88;;;27.73;100.00
19777;BME280;10047;42.490;26.012;2023-07-09T07:18:46;101278.94;;;27.84;100.00
19777;BME280;10047;42.490;26.012;2023-07-09T07:21:11;101278.72;;;27.43;100.00
19777;BME280;10047;42.490;26.012;2023-07-09T07:23:36;101261.25;;;27.55;100.00
19777;BME280;10047;42.490;26.012;2023-07-09T07:29:04;101142.88;;;28.27;100.00
19777;BME280;10047;42.490;26.012;2023-07-09T07:31:30;101080.34;;;27.51;100.00
19777;BME280;10047;42.490;26.012;2023-07-09T07:33:55;101047.09;;;28.15;100.00
19777;BME280;10047;42.490;26.012;2023-07-09T07:36:20;100983.50;;;28.14;100.00
19777;BME280;10047;42.490;26.012;2023-07-09T07:41:48;100857.06;;;27.74;100.00
19777;BME280;10047;42.490;26.012;2023-07-09T07:44:15;100826.25;;;28.17;100.00
19777;BME280;10047;42.490;26.012;2023-07-09T07:46:41;100797.72;;;28.05;100.00
19777;BME280;10047;42.490;26.012;2023-07-09T07:49:06;100776.16;;;28.22;100.00
19777;BME280;10047;42.490;26.012;2023-07-09T07:54:34;100736.81;;;27.84;100.00
19777;BME280;10047;42.490;26.012;2023-07-09T07:56:59;100725.94;;;27.79;100.00
19777;BME280;10047;42.490;26.012;2023-07-09T07:59:25;100721.47;;;28.48;100.00
19777;BME280;10047;42.490;26.012;2023-07-09T08:01:50;100717.97;;;27.90;100.00
19777;BME280;10047;42.490;26.012;2023-07-09T08:04:16;100704.75;;;27.82;100.00
19777;BME280;10047;42.490;26.012;2023-07-09T08:06:41;100722.97;;;28.79;100.00
19777;BME280;10047;42.490;26.012;2023-07-09T08:09:06;100714.59;;;27.99;100.00
19777;BME280;10047;42.490;26.012;2023-07-09T08:11:32;100715.28;;;28.20;100.00
19777;BME280;10047;42.490;26.012;2023-07-09T08:13:57;100713.34;;;28.79;100.00
19777;BME280;10047;42.490;26.012;2023-07-09T08:19:25;100700.13;;;28.43;100.00
19777;BME280;10047;42.490;26.012;2023-07-09T08:24:53;100692.28;;;28.62;100.00
19777;BME280;10047;42.490;26.012;2023-07-09T08:27:18;100699.72;;;29.49;100.00
19777;BME280;10047;42.490;26.012;2023-07-09T08:29:44;100688.00;;;28.42;100.00
19777;BME280;10047;42.490;26.012;2023-07-09T08:32:12;100691.38;;;29.36;100.00
19777;BME280;10047;42.490;26.012;2023-07-09T08:37:40;100695.16;;;29.24;100.00
19777;BME280;10047;42.490;26.012;2023-07-09T08:40:07;100696.34;;;29.30;100.00
19777;BME280;10047;42.490;26.012;2023-07-09T08:42:39;100680.56;;;28.47;100.00
19777;BME280;10047;42.490;26.012;2023-07-09T08:50:43;100689.44;;;29.01;100.00
19777;BME280;10047;42.490;26.012;2023-07-09T08:53:15;100686.13;;;29.36;100.00
19777;BME280;10047;42.490;26.012;2023-07-09T08:55:42;100689.34;;;28.84;100.00
19777;BME280;10047;42.490;26.012;2023-07-09T09:01:18;100697.19;;;30.02;100.00
19777;BME280;10047;42.490;26.012;2023-07-09T09:03:46;100678.84;;;29.30;100.00
19777;BME280;10047;42.490;26.012;2023-07-09T09:06:12;100681.59;;;29.56;100.00
19777;BME280;10047;42.490;26.012;2023-07-09T09:13:28;100688.72;;;30.08;100.00
19777;BME280;10047;42.490;26.012;2023-07-09T09:15:55;100675.59;;;29.63;100.00
19777;BME280;10047;42.490;26.012;2023-07-09T09:18:26;100681.84;;;30.42;100.00
19777;BME280;10047;42.490;26.012;2023-07-09T09:30:20;100669.91;;;30.73;100.00
19777;BME280;10047;42.490;26.012;2023-07-09T09:32:55;100678.94;;;30.53;100.00
19777;BME280;10047;42.490;26.012;2023-07-09T09:35:26;100663.00;;;29.94;100.00
19777;BME280;10047;42.490;26.012;2023-07-09T09:37:55;100671.28;;;30.60;100.00
19777;BME280;10047;42.490;26.012;2023-07-09T09:40:21;100672.22;;;30.33;100.00
19777;BME280;10047;42.490;26.012;2023-07-09T09:42:48;100654.81;;;29.35;100.00
19777;BME280;10047;42.490;26.012;2023-07-09T09:45:15;100671.25;;;29.81;100.00
19777;BME280;10047;42.490;26.012;2023-07-09T09:50:44;100677.56;;;29.88;100.00
19777;BME280;10047;42.490;26.012;2023-07-09T09:53:12;100660.75;;;29.81;100.00
19777;BME280;10047;42.490;26.012;2023-07-09T09:55:40;100669.91;;;30.73;100.00
19777;BME280;10047;42.490;26.012;2023-07-09T09:58:13;100674.28;;;30.91;100.00
19777;BME280;10047;42.490;26.012;2023-07-09T10:00:40;100669.94;;;30.82;100.00
19777;BME280;10047;42.490;26.012;2023-07-09T10:03:05;100658.09;;;30.52;100.00
19777;BME280;10047;42.490;26.012;2023-07-09T10:05:44;100653.97;;;30.49;100.00
19777;BME280;10047;42.490;26.012;2023-07-09T10:11:21;100646.19;;;30.65;100.00
19777;BME280;10047;42.490;26.012;2023-07-09T10:13:49;100663.47;;;30.94;100.00
19777;BME280;10047;42.490;26.012;2023-07-09T10:29:03;100663.09;;;30.63;100.00
19777;BME280;10047;42.490;26.012;2023-07-09T10:37:47;100669.66;;;31.60;100.00
19777;BME280;10047;42.490;26.012;2023-07-09T10:39:53;100646.88;;;30.24;100.00
19777;BME280;10047;42.490;26.012;2023-07-09T10:45:33;100639.09;;;30.58;100.00
19777;BME280;10047;42.490;26.012;2023-07-09T10:48:04;100666.38;;;30.65;100.00
19777;BME280;10047;42.490;26.012;2023-07-09T10:50:36;100668.91;;;30.74;100.00
19777;BME280;10047;42.490;26.012;2023-07-09T10:56:07;100682.66;;;31.53;100.00
19777;BME280;10047;42.490;26.012;2023-07-09T10:58:50;100663.13;;;30.71;100.00
19777;BME280;10047;42.490;26.012;2023-07-09T11:01:22;100681.44;;;31.40;100.00
19777;BME280;10047;42.490;26.012;2023-07-09T11:03:51;100670.69;;;31.67;100.00
19777;BME280;10047;42.490;26.012;2023-07-09T11:06:20;100649.59;;;30.32;100.00
19777;BME280;10047;42.490;26.012;2023-07-09T11:08:47;100645.75;;;30.96;100.00
19777;BME280;10047;42.490;26.012;2023-07-09T11:14:21;100656.69;;;31.67;100.00
19777;BME280;10047;42.490;26.012;2023-07-09T11:16:47;100672.13;;;31.70;100.00
19777;BME280;10047;42.490;26.012;2023-07-09T11:19:14;100651.78;;;31.30;100.00
19777;BME280;10047;42.490;26.012;2023-07-09T11:24:45;100633.31;;;30.29;100.00
19777;BME280;10047;42.490;26.012;2023-07-09T11:27:16;100657.22;;;31.36;100.00
19777;BME280;10047;42.490;26.012;2023-07-09T11:29:45;100652.25;;;30.84;100.00
19777;BME280;10047;42.490;26.012;2023-07-09T11:32:17;100655.38;;;31.63;100.00
19777;BME280;10047;42.490;26.012;2023-07-09T11:37:46;100660.25;;;31.08;100.00
19777;BME280;10047;42.490;26.012;2023-07-09T11:43:32;100657.00;;;31.63;100.00
19777;BME280;10047;42.490;26.012;2023-07-09T11:45:59;100639.50;;;30.97;100.00
19777;BME280;10047;42.490;26.012;2023-07-09T11:48:28;100636.47;;;31.17;100.00
19777;BME280;10047;42.490;26.012;2023-07-09T11:53:57;100648.31;;;31.63;100.00
19777;BME280;10047;42.490;26.012;2023-07-09T11:56:24;100605.31;;;30.37;100.00
19777;BME280;10047;42.490;26.012;2023-07-09T11:58:51;100616.72;;;30.79;100.00
19777;BME280;10047;42.490;26.012;2023-07-09T12:01:18;100623.84;;;31.29;100.00
19777;BME280;10047;42.490;26.012;2023-07-09T12:06:47;100615.22;;;31.03;100.00
19777;BME280;10047;42.490;26.012;2023-07-09T12:12:23;100618.41;;;31.22;100.00
19777;BME280;10047;42.490;26.012;2023-07-09T12:14:48;100623.63;;;30.80;100.00
19777;BME280;10047;42.490;26.012;2023-07-09T12:17:14;100615.19;;;30.95;100.00
19777;BME280;10047;42.490;26.012;2023-07-09T12:19:39;100631.50;;;31.48;100.00
19777;BME280;10047;42.490;26.012;2023-07-09T12:25:12;100631.22;;;31.91;100.00
19777;BME280;10047;42.490;26.012;2023-07-09T12:27:42;100626.09;;;31.74;100.00
19777;BME280;10047;42.490;26.012;2023-07-09T12:30:11;100617.28;;;31.33;100.00
19777;BME280;10047;42.490;26.012;2023-07-09T12:32:42;100619.53;;;32.42;100.00
19777;BME280;10047;42.490;26.012;2023-07-09T12:38:19;100615.09;;;31.70;100.00
19777;BME280;10047;42.490;26.012;2023-07-09T12:40:46;100615.97;;;31.29;100.00
19777;BME280;10047;42.490;26.012;2023-07-09T12:43:11;100605.13;;;30.64;100.00
19777;BME280;10047;42.490;26.012;2023-07-09T12:45:37;100620.00;;;31.49;100.00
19777;BME280;10047;42.490;26.012;2023-07-09T12:48:02;100625.47;;;31.88;100.00
19777;BME280;10047;42.490;26.012;2023-07-09T12:50:29;100606.41;;;32.10;100.00
19777;BME280;10047;42.490;26.012;2023-07-09T12:52:56;100599.16;;;31.88;100.00
19777;BME280;10047;42.490;26.012;2023-07-09T12:58:27;100600.63;;;32.30;100.00
19777;BME280;10047;42.490;26.012;2023-07-09T13:00:53;100594.53;;;31.00;100.00
19777;BME280;10047;42.490;26.012;2023-07-09T13:03:25;100612.44;;;31.54;100.00
19777;BME280;10047;42.490;26.012;2023-07-09T13:05:51;100602.41;;;31.66;100.00
19777;BME280;10047;42.490;26.012;2023-07-09T13:08:17;100589.63;;;30.79;100.00
19777;BME280;10047;42.490;26.012;2023-07-09T13:10:42;100600.75;;;31.48;100.00
19777;BME280;10047;42.490;26.012;2023-07-09T13:13:12;100603.66;;;31.37;100.00
19777;BME280;10047;42.490;26.012;2023-07-09T13:15:39;100603.47;;;31.23;100.00
19777;BME280;10047;42.490;26.012;2023-07-09T13:18:05;100604.13;;;31.25;100.00
19777;BME280;10047;42.490;26.012;2023-07-09T13:20:32;100602.00;;;30.87;100.00
19777;BME280;10047;42.490;26.012;2023-07-09T13:22:57;100602.66;;;30.89;100.00
19777;BME280;10047;42.490;26.012;2023-07-09T13:25:23;100613.81;;;31.24;100.00
19777;BME280;10047;42.490;26.012;2023-07-09T13:27:49;100612.50;;;31.28;100.00
19777;BME280;10047;42.490;26.012;2023-07-09T13:30:14;100617.06;;;31.18;100.00
19777;BME280;10047;42.490;26.012;2023-07-09T13:35:42;100608.50;;;31.08;100.00
19777;BME280;10047;42.490;26.012;2023-07-09T13:38:12;100612.81;;;31.83;100.00
19777;BME280;10047;42.490;26.012;2023-07-09T13:40:38;100587.88;;;31.29;100.00
19777;BME280;10047;42.490;26.012;2023-07-09T13:43:07;100588.28;;;31.58;100.00
19777;BME280;10047;42.490;26.012;2023-07-09T13:48:35;100595.03;;;31.61;100.00
19777;BME280;10047;42.490;26.012;2023-07-09T13:51:05;100597.75;;;30.86;100.00
19777;BME280;10047;42.490;26.012;2023-07-09T13:53:36;100589.09;;;30.67;100.00
19777;BME280;10047;42.490;26.012;2023-07-09T13:59:05;100590.06;;;31.50;100.00
19777;BME280;10047;42.490;26.012;2023-07-09T14:04:33;100585.34;;;32.02;100.00
19777;BME280;10047;42.490;26.012;2023-07-09T14:06:58;100587.00;;;31.79;100.00
19777;BME280;10047;42.490;26.012;2023-07-09T14:09:24;100582.69;;;30.96;100.00
19777;BME280;10047;42.490;26.012;2023-07-09T14:11:50;100573.91;;;30.53;100.00
19777;BME280;10047;42.490;26.012;2023-07-09T14:14:20;100582.59;;;31.21;100.00
19777;BME280;10047;42.490;26.012;2023-07-09T14:16:46;100582.34;;;31.56;100.00
19777;BME280;10047;42.490;26.012;2023-07-09T14:19:16;100587.31;;;30.42;100.00
19777;BME280;10047;42.490;26.012;2023-07-09T14:21:42;100585.63;;;30.16;100.00
19777;BME280;10047;42.490;26.012;2023-07-09T14:27:11;100587.78;;;30.97;100.00
19777;BME280;10047;42.490;26.012;2023-07-09T14:29:36;100585.47;;;31.02;100.00
19777;BME280;10047;42.490;26.012;2023-07-09T14:32:02;100589.59;;;30.71;100.00
19777;BME280;10047;42.490;26.012;2023-07-09T14:34:28;100587.31;;;29.81;100.00
19777;BME280;10047;42.490;26.012;2023-07-09T14:36:55;100594.78;;;30.89;100.00
19777;BME280;10047;42.490;26.012;2023-07-09T14:39:21;100606.59;;;30.85;100.00
19777;BME280;10047;42.490;26.012;2023-07-09T14:41:46;100595.09;;;30.52;100.00
19777;BME280;10047;42.490;26.012;2023-07-09T14:47:17;100608.34;;;31.10;100.00
19777;BME280;10047;42.490;26.012;2023-07-09T14:52:45;100598.09;;;30.91;100.00
19777;BME280;10047;42.490;26.012;2023-07-09T14:55:29;100599.84;;;30.82;100.00
19777;BME280;10047;42.490;26.012;2023-07-09T15:00:57;100622.78;;;31.55;100.00
19777;BME280;10047;42.490;26.012;2023-07-09T15:03:23;100620.16;;;31.47;100.00
19777;BME280;10047;42.490;26.012;2023-07-09T15:05:49;100615.94;;;31.79;100.00
19777;BME280;10047;42.490;26.012;2023-07-09T15:08:18;100624.34;;;32.14;100.00
19777;BME280;10047;42.490;26.012;2023-07-09T15:13:47;100625.06;;;31.01;100.00
19777;BME280;10047;42.490;26.012;2023-07-09T15:19:18;100625.88;;;31.01;100.00
19777;BME280;10047;42.490;26.012;2023-07-09T15:21:43;100620.31;;;31.04;100.00
19777;BME280;10047;42.490;26.012;2023-07-09T15:24:24;100629.34;;;31.02;100.00
19777;BME280;10047;42.490;26.012;2023-07-09T15:29:53;100628.13;;;30.37;100.00
19777;BME280;10047;42.490;26.012;2023-07-09T15:35:22;100635.38;;;30.94;100.00
19777;BME280;10047;42.490;26.012;2023-07-09T15:37:47;100621.06;;;30.37;100.00
19777;BME280;10047;42.490;26.012;2023-07-09T15:42:39;100626.53;;;30.95;100.00
19777;BME280;10047;42.490;26.012;2023-07-09T15:45:04;100635.63;;;30.83;100.00
19777;BME280;10047;42.490;26.012;2023-07-09T15:47:30;100625.50;;;30.37;100.00
19777;BME280;10047;42.490;26.012;2023-07-09T15:49:55;100631.75;;;30.87;100.00
19777;BME280;10047;42.490;26.012;2023-07-09T15:52:20;100627.25;;;30.79;100.00
19777;BME280;10047;42.490;26.012;2023-07-09T15:57:49;100640.22;;;30.81;100.00
19777;BME280;10047;42.490;26.012;2023-07-09T16:00:25;100623.34;;;30.58;100.00
19777;BME280;10047;42.490;26.012;2023-07-09T16:02:51;100618.00;;;30.42;100.00
19777;BME280;10047;42.490;26.012;2023-07-09T16:08:19;100631.78;;;30.44;100.00
19777;BME280;10047;42.490;26.012;2023-07-09T16:10:45;100630.38;;;30.32;100.00
19777;BME280;10047;42.490;26.012;2023-07-09T16:13:17;100640.16;;;30.73;100.00
19777;BME280;10047;42.490;26.012;2023-07-09T16:18:46;100635.94;;;30.29;100.00
19777;BME280;10047;42.490;26.012;2023-07-09T16:21:32;100628.28;;;30.18;100.00
19777;BME280;10047;42.490;26.012;2023-07-09T16:27:02;100638.22;;;30.49;100.00
19777;BME280;10047;42.490;26.012;2023-07-09T16:29:28;100641.78;;;30.40;100.00
19777;BME280;10047;42.490;26.012;2023-07-09T16:31:54;100648.50;;;30.25;100.00
19777;BME280;10047;42.490;26.012;2023-07-09T16:34:21;100645.84;;;30.00;100.00
19777;BME280;10047;42.490;26.012;2023-07-09T16:39:49;100658.44;;;30.31;100.00
19777;BME280;10047;42.490;26.012;2023-07-09T16:45:17;100663.16;;;29.92;100.00
19777;BME280;10047;42.490;26.012;2023-07-09T16:47:43;100658.03;;;29.73;100.00
19777;BME280;10047;42.490;26.012;2023-07-09T16:50:17;100651.09;;;29.82;100.00
19777;BME280;10047;42.490;26.012;2023-07-09T16:52:43;100658.31;;;29.70;100.00